sensor_id;sensor_type;location;lat;lon;timestamp;temperature;humidity
28484;DHT22;15704;48.834;8.736;2022-11-20T00:01:16;5.20;99.90
28484;DHT22;15704;48.834;8.736;2022-11-20T00:03:42;5.20;99.90
28484;DHT22;15704;48.834;8.736;2022-11-20T00:06:10;5.20;99.90
28484;DHT22;15704;48.834;8.736;2022-11-20T00:08:36;5.20;99.90
28484;DHT22;15704;48.834;8.736;2022-11-20T00:11:12;5.20;99.90
28484;DHT22;15704;48.834;8.736;2022-11-20T00:13:38;5.20;99.90
28484;DHT22;15704;48.834;8.736;2022-11-20T00:16:06;5.20;99.90
28484;DHT22;15704;48.834;8.736;2022-11-20T00:18:35;5.20;99.90
28484;DHT22;15704;48.834;8.736;2022-11-20T00:21:06;5.20;99.90
28484;DHT22;15704;48.834;8.736;2022-11-20T00:23:32;5.10;99.90
28484;DHT22;15704;48.834;8.736;2022-11-20T00:26:03;5.10;99.90
28484;DHT22;15704;48.834;8.736;2022-11-20T00:28:29;5.10;99.90
28484;DHT22;15704;48.834;8.736;2022-11-20T00:31:08;5.10;99.90
28484;DHT22;15704;48.834;8.736;2022-11-20T00:33:34;5.00;99.90
28484;DHT22;15704;48.834;8.736;2022-11-20T00:36:05;5.00;99.90
28484;DHT22;15704;48.834;8.736;2022-11-20T00:38:31;4.90;99.90
28484;DHT22;15704;48.834;8.736;2022-11-20T00:40:58;4.90;99.90
28484;DHT22;15704;48.834;8.736;2022-11-20T00:43:25;4.90;99.90
28484;DHT22;15704;48.834;8.736;2022-11-20T00:45:55;4.90;99.90
28484;DHT22;15704;48.834;8.736;2022-11-20T00:48:21;4.80;99.90
28484;DHT22;15704;48.834;8.736;2022-11-20T00:50:46;4.80;99.90
28484;DHT22;15704;48.834;8.736;2022-11-20T00:53:12;4.80;99.90
28484;DHT22;15704;48.834;8.736;2022-11-20T00:55:37;4.70;99.90
28484;DHT22;15704;48.834;8.736;2022-11-20T00:58:03;4.70;99.90
28484;DHT22;15704;48.834;8.736;2022-11-20T01:00:29;4.60;99.90
28484;DHT22;15704;48.834;8.736;2022-11-20T01:02:55;4.60;99.90
28484;DHT22;15704;48.834;8.736;2022-11-20T01:05:21;4.60;99.90
28484;DHT22;15704;48.834;8.736;2022-11-20T01:07:46;4.50;99.90
28484;DHT22;15704;48.834;8.736;2022-11-20T01:10:12;4.40;99.90
28484;DHT22;15704;48.834;8.736;2022-11-20T01:12:37;4.40;99.90
28484;DHT22;15704;48.834;8.736;2022-11-20T01:15:03;4.40;99.90
28484;DHT22;15704;48.834;8.736;2022-11-20T01:17:31;4.40;99.90
28484;DHT22;15704;48.834;8.736;2022-11-20T01:19:57;4.30;99.90
28484;DHT22;15704;48.834;8.736;2022-11-20T01:22:22;4.30;99.90
28484;DHT22;15704;48.834;8.736;2022-11-20T01:24:48;4.30;99.90
28484;DHT22;15704;48.834;8.736;2022-11-20T01:27:13;4.40;99.90
28484;DHT22;15704;48.834;8.736;2022-11-20T01:29:39;4.60;99.90
28484;DHT22;15704;48.834;8.736;2022-11-20T01:32:05;4.70;99.90
28484;DHT22;15704;48.834;8.736;2022-11-20T01:34:30;4.80;99.90
28484;DHT22;15704;48.834;8.736;2022-11-20T01:36:56;4.90;99.90
28484;DHT22;15704;48.834;8.736;2022-11-20T01:39:24;4.90;99.90
28484;DHT22;15704;48.834;8.736;2022-11-20T01:41:51;4.90;99.90
28484;DHT22;15704;48.834;8.736;2022-11-20T01:44:58;4.90;99.90
28484;DHT22;15704;48.834;8.736;2022-11-20T01:47:31;4.80;99.90
28484;DHT22;15704;48.834;8.736;2022-11-20T01:52:38;4.80;99.90
28484;DHT22;15704;48.834;8.736;2022-11-20T01:55:10;4.70;99.90
28484;DHT22;15704;48.834;8.736;2022-11-20T01:57:38;4.80;99.90
28484;DHT22;15704;48.834;8.736;2022-11-20T02:00:08;4.80;99.90
28484;DHT22;15704;48.834;8.736;2022-11-20T02:02:35;4.80;99.90
28484;DHT22;15704;48.834;8.736;2022-11-20T02:05:51;4.90;99.90
28484;DHT22;15704;48.834;8.736;2022-11-20T02:07:57;5.00;99.90
28484;DHT22;15704;48.834;8.736;2022-11-20T02:10:23;4.90;99.90
28484;DHT22;15704;48.834;8.736;2022-11-20T02:12:49;5.10;99.90
28484;DHT22;15704;48.834;8.736;2022-11-20T02:15:34;5.20;99.90
28484;DHT22;15704;48.834;8.736;2022-11-20T02:18:00;5.20;99.90
28484;DHT22;15704;48.834;8.736;2022-11-20T02:20:26;5.20;99.90
28484;DHT22;15704;48.834;8.736;2022-11-20T02:23:16;5.20;99.90
28484;DHT22;15704;48.834;8.736;2022-11-20T02:25:43;5.30;99.90
28484;DHT22;15704;48.834;8.736;2022-11-20T02:28:11;5.20;99.90
28484;DHT22;15704;48.834;8.736;2022-11-20T02:30:36;5.30;99.90
28484;DHT22;15704;48.834;8.736;2022-11-20T02:33:02;5.20;99.90
28484;DHT22;15704;48.834;8.736;2022-11-20T02:37:54;5.10;99.90
28484;DHT22;15704;48.834;8.736;2022-11-20T02:40:21;5.20;99.90
28484;DHT22;15704;48.834;8.736;2022-11-20T02:42:47;5.20;99.90
28484;DHT22;15704;48.834;8.736;2022-11-20T02:45:13;5.20;99.90
28484;DHT22;15704;48.834;8.736;2022-11-20T02:47:39;5.20;99.90
28484;DHT22;15704;48.834;8.736;2022-11-20T02:50:05;5.20;99.90
28484;DHT22;15704;48.834;8.736;2022-11-20T02:52:31;5.20;99.90
28484;DHT22;15704;48.834;8.736;2022-11-20T02:54:57;5.20;99.90
28484;DHT22;15704;48.834;8.736;2022-11-20T02:57:22;5.20;99.90
28484;DHT22;15704;48.834;8.736;2022-11-20T02:59:48;5.10;99.90
28484;DHT22;15704;48.834;8.736;2022-11-20T03:02:13;5.00;99.90
28484;DHT22;15704;48.834;8.736;2022-11-20T03:04:39;5.00;99.90
28484;DHT22;15704;48.834;8.736;2022-11-20T03:07:04;4.90;99.90
28484;DHT22;15704;48.834;8.736;2022-11-20T03:09:30;4.80;99.90
28484;DHT22;15704;48.834;8.736;2022-11-20T03:11:56;4.90;99.90
28484;DHT22;15704;48.834;8.736;2022-11-20T03:14:22;5.00;99.90
28484;DHT22;15704;48.834;8.736;2022-11-20T03:16:47;5.00;99.90
28484;DHT22;15704;48.834;8.736;2022-11-20T03:19:13;5.10;99.90
28484;DHT22;15704;48.834;8.736;2022-11-20T03:21:39;5.10;99.90
28484;DHT22;15704;48.834;8.736;2022-11-20T03:24:05;5.10;99.90
28484;DHT22;15704;48.834;8.736;2022-11-20T03:26:31;5.20;99.90
28484;DHT22;15704;48.834;8.736;2022-11-20T03:28:58;5.20;99.90
28484;DHT22;15704;48.834;8.736;2022-11-20T03:31:59;5.20;99.90
28484;DHT22;15704;48.834;8.736;2022-11-20T03:34:17;5.20;99.90
28484;DHT22;15704;48.834;8.736;2022-11-20T03:36:43;5.10;99.90
28484;DHT22;15704;48.834;8.736;2022-11-20T03:39:09;5.20;99.90
28484;DHT22;15704;48.834;8.736;2022-11-20T03:41:39;5.20;99.90
28484;DHT22;15704;48.834;8.736;2022-11-20T03:44:07;5.20;99.90
28484;DHT22;15704;48.834;8.736;2022-11-20T03:46:33;5.30;99.90
28484;DHT22;15704;48.834;8.736;2022-11-20T03:48:59;5.30;99.90
28484;DHT22;15704;48.834;8.736;2022-11-20T03:51:30;5.40;99.90
28484;DHT22;15704;48.834;8.736;2022-11-20T03:53:58;5.40;99.90
28484;DHT22;15704;48.834;8.736;2022-11-20T03:56:26;5.40;99.90
28484;DHT22;15704;48.834;8.736;2022-11-20T03:58:52;5.50;99.90
28484;DHT22;15704;48.834;8.736;2022-11-20T04:01:20;5.40;99.90
28484;DHT22;15704;48.834;8.736;2022-11-20T04:03:46;5.40;99.90
28484;DHT22;15704;48.834;8.736;2022-11-20T04:06:14;5.40;99.90
28484;DHT22;15704;48.834;8.736;2022-11-20T04:08:40;5.40;99.90
28484;DHT22;15704;48.834;8.736;2022-11-20T04:13:35;5.50;99.90
28484;DHT22;15704;48.834;8.736;2022-11-20T04:16:00;5.50;99.90
28484;DHT22;15704;48.834;8.736;2022-11-20T04:18:26;5.50;99.90
28484;DHT22;15704;48.834;8.736;2022-11-20T04:20:51;5.50;99.90
28484;DHT22;15704;48.834;8.736;2022-11-20T04:23:17;5.50;99.90
28484;DHT22;15704;48.834;8.736;2022-11-20T04:25:42;5.60;99.90
28484;DHT22;15704;48.834;8.736;2022-11-20T04:28:08;5.60;99.90
28484;DHT22;15704;48.834;8.736;2022-11-20T04:30:33;5.50;99.90
28484;DHT22;15704;48.834;8.736;2022-11-20T04:32:59;5.50;99.90
28484;DHT22;15704;48.834;8.736;2022-11-20T04:35:25;5.60;99.90
28484;DHT22;15704;48.834;8.736;2022-11-20T04:37:53;5.60;99.90
28484;DHT22;15704;48.834;8.736;2022-11-20T04:40:19;5.60;99.90
28484;DHT22;15704;48.834;8.736;2022-11-20T04:42:44;5.60;99.90
28484;DHT22;15704;48.834;8.736;2022-11-20T04:45:10;5.60;99.90
28484;DHT22;15704;48.834;8.736;2022-11-20T04:47:35;5.50;99.90
28484;DHT22;15704;48.834;8.736;2022-11-20T04:50:01;5.60;99.90
28484;DHT22;15704;48.834;8.736;2022-11-20T04:52:27;5.60;99.90
28484;DHT22;15704;48.834;8.736;2022-11-20T04:54:52;5.50;99.90
28484;DHT22;15704;48.834;8.736;2022-11-20T04:57:19;5.50;99.90
28484;DHT22;15704;48.834;8.736;2022-11-20T04:59:44;5.60;99.90
28484;DHT22;15704;48.834;8.736;2022-11-20T05:02:10;5.60;99.90
28484;DHT22;15704;48.834;8.736;2022-11-20T05:04:36;5.50;99.90
28484;DHT22;15704;48.834;8.736;2022-11-20T05:07:02;5.60;99.90
28484;DHT22;15704;48.834;8.736;2022-11-20T05:09:28;5.60;99.90
28484;DHT22;15704;48.834;8.736;2022-11-20T05:11:53;5.50;99.90
28484;DHT22;15704;48.834;8.736;2022-11-20T05:14:19;5.50;99.90
28484;DHT22;15704;48.834;8.736;2022-11-20T05:16:44;5.60;99.90
28484;DHT22;15704;48.834;8.736;2022-11-20T05:19:10;5.50;99.90
28484;DHT22;15704;48.834;8.736;2022-11-20T05:21:36;5.50;99.90
28484;DHT22;15704;48.834;8.736;2022-11-20T05:24:01;5.60;99.90
28484;DHT22;15704;48.834;8.736;2022-11-20T05:26:27;5.60;99.90
28484;DHT22;15704;48.834;8.736;2022-11-20T05:28:52;5.50;99.90
28484;DHT22;15704;48.834;8.736;2022-11-20T05:31:21;5.60;99.90
28484;DHT22;15704;48.834;8.736;2022-11-20T05:33:47;5.60;99.90
28484;DHT22;15704;48.834;8.736;2022-11-20T05:36:13;5.50;99.90
28484;DHT22;15704;48.834;8.736;2022-11-20T05:38:39;5.50;99.90
28484;DHT22;15704;48.834;8.736;2022-11-20T05:41:10;5.50;99.90
28484;DHT22;15704;48.834;8.736;2022-11-20T05:43:38;5.50;99.90
28484;DHT22;15704;48.834;8.736;2022-11-20T05:46:05;5.60;99.90
28484;DHT22;15704;48.834;8.736;2022-11-20T05:48:32;5.60;99.90
28484;DHT22;15704;48.834;8.736;2022-11-20T05:50:59;5.60;99.90
28484;DHT22;15704;48.834;8.736;2022-11-20T05:53:25;5.50;99.90
28484;DHT22;15704;48.834;8.736;2022-11-20T05:56:05;5.60;99.90
28484;DHT22;15704;48.834;8.736;2022-11-20T05:58:31;5.50;99.90
28484;DHT22;15704;48.834;8.736;2022-11-20T06:03:30;5.50;99.90
28484;DHT22;15704;48.834;8.736;2022-11-20T06:05:56;5.40;99.90
28484;DHT22;15704;48.834;8.736;2022-11-20T06:08:21;5.50;99.90
28484;DHT22;15704;48.834;8.736;2022-11-20T06:10:47;5.50;99.90
28484;DHT22;15704;48.834;8.736;2022-11-20T06:13:12;5.50;99.90
28484;DHT22;15704;48.834;8.736;2022-11-20T06:15:38;5.50;99.90
28484;DHT22;15704;48.834;8.736;2022-11-20T06:18:03;5.50;99.90
28484;DHT22;15704;48.834;8.736;2022-11-20T06:20:29;5.50;99.90
28484;DHT22;15704;48.834;8.736;2022-11-20T06:22:54;5.50;99.90
28484;DHT22;15704;48.834;8.736;2022-11-20T06:25:20;5.50;99.90
28484;DHT22;15704;48.834;8.736;2022-11-20T06:27:46;5.50;99.90
28484;DHT22;15704;48.834;8.736;2022-11-20T06:30:12;5.60;99.90
28484;DHT22;15704;48.834;8.736;2022-11-20T06:32:37;5.60;99.90
28484;DHT22;15704;48.834;8.736;2022-11-20T06:35:03;5.60;99.90
28484;DHT22;15704;48.834;8.736;2022-11-20T06:37:29;5.60;99.90
28484;DHT22;15704;48.834;8.736;2022-11-20T06:39:54;5.70;99.90
28484;DHT22;15704;48.834;8.736;2022-11-20T06:42:20;5.60;99.90
28484;DHT22;15704;48.834;8.736;2022-11-20T06:44:45;5.70;99.90
28484;DHT22;15704;48.834;8.736;2022-11-20T06:47:11;5.70;99.90
28484;DHT22;15704;48.834;8.736;2022-11-20T06:49:36;5.70;99.90
28484;DHT22;15704;48.834;8.736;2022-11-20T06:52:04;5.80;99.90
28484;DHT22;15704;48.834;8.736;2022-11-20T06:54:29;5.70;99.90
28484;DHT22;15704;48.834;8.736;2022-11-20T06:56:55;5.70;99.90
28484;DHT22;15704;48.834;8.736;2022-11-20T06:59:20;5.70;99.90
28484;DHT22;15704;48.834;8.736;2022-11-20T07:01:46;5.70;99.90
28484;DHT22;15704;48.834;8.736;2022-11-20T07:04:12;5.70;99.90
28484;DHT22;15704;48.834;8.736;2022-11-20T07:06:38;5.70;99.90
28484;DHT22;15704;48.834;8.736;2022-11-20T07:09:03;5.70;99.90
28484;DHT22;15704;48.834;8.736;2022-11-20T07:11:29;5.80;99.90
28484;DHT22;15704;48.834;8.736;2022-11-20T07:13:56;5.80;99.90
28484;DHT22;15704;48.834;8.736;2022-11-20T07:16:22;5.80;99.90
28484;DHT22;15704;48.834;8.736;2022-11-20T07:18:48;5.70;99.90
28484;DHT22;15704;48.834;8.736;2022-11-20T07:21:13;5.80;99.90
28484;DHT22;15704;48.834;8.736;2022-11-20T07:23:39;5.80;99.90
28484;DHT22;15704;48.834;8.736;2022-11-20T07:26:06;5.80;99.90
28484;DHT22;15704;48.834;8.736;2022-11-20T07:28:32;5.80;99.90
28484;DHT22;15704;48.834;8.736;2022-11-20T07:30:58;5.80;99.90
28484;DHT22;15704;48.834;8.736;2022-11-20T07:33:24;5.80;99.90
28484;DHT22;15704;48.834;8.736;2022-11-20T07:35:49;5.70;99.90
28484;DHT22;15704;48.834;8.736;2022-11-20T07:38:15;5.80;99.90
28484;DHT22;15704;48.834;8.736;2022-11-20T07:40:41;5.70;99.90
28484;DHT22;15704;48.834;8.736;2022-11-20T07:43:06;5.60;99.90
28484;DHT22;15704;48.834;8.736;2022-11-20T07:45:32;5.70;99.90
28484;DHT22;15704;48.834;8.736;2022-11-20T07:47:57;5.70;99.90
28484;DHT22;15704;48.834;8.736;2022-11-20T07:50:23;5.80;99.90
28484;DHT22;15704;48.834;8.736;2022-11-20T07:52:49;5.80;99.90
28484;DHT22;15704;48.834;8.736;2022-11-20T07:55:15;5.90;99.90
28484;DHT22;15704;48.834;8.736;2022-11-20T07:57:40;5.80;99.90
28484;DHT22;15704;48.834;8.736;2022-11-20T08:00:08;5.90;99.90
28484;DHT22;15704;48.834;8.736;2022-11-20T08:02:40;5.80;99.90
28484;DHT22;15704;48.834;8.736;2022-11-20T08:05:09;5.80;99.90
28484;DHT22;15704;48.834;8.736;2022-11-20T08:07:37;5.80;99.90
28484;DHT22;15704;48.834;8.736;2022-11-20T08:10:03;5.90;99.90
28484;DHT22;15704;48.834;8.736;2022-11-20T08:12:28;5.80;99.90
28484;DHT22;15704;48.834;8.736;2022-11-20T08:15:12;5.80;99.90
28484;DHT22;15704;48.834;8.736;2022-11-20T08:17:38;5.90;99.90
28484;DHT22;15704;48.834;8.736;2022-11-20T08:20:04;6.00;99.90
28484;DHT22;15704;48.834;8.736;2022-11-20T08:22:30;6.00;99.90
28484;DHT22;15704;48.834;8.736;2022-11-20T08:24:55;6.10;99.90
28484;DHT22;15704;48.834;8.736;2022-11-20T08:27:21;6.00;99.90
28484;DHT22;15704;48.834;8.736;2022-11-20T08:29:46;6.10;99.90
28484;DHT22;15704;48.834;8.736;2022-11-20T08:32:12;6.10;99.90
28484;DHT22;15704;48.834;8.736;2022-11-20T08:34:37;6.00;99.90
28484;DHT22;15704;48.834;8.736;2022-11-20T08:37:03;6.00;99.90
28484;DHT22;15704;48.834;8.736;2022-11-20T08:39:29;6.10;99.90
28484;DHT22;15704;48.834;8.736;2022-11-20T08:41:54;6.20;99.90
28484;DHT22;15704;48.834;8.736;2022-11-20T08:44:20;6.20;99.90
28484;DHT22;15704;48.834;8.736;2022-11-20T08:46:45;6.30;99.90
28484;DHT22;15704;48.834;8.736;2022-11-20T08:49:13;6.10;99.90
28484;DHT22;15704;48.834;8.736;2022-11-20T08:51:39;6.20;99.90
28484;DHT22;15704;48.834;8.736;2022-11-20T08:54:06;6.30;99.90
28484;DHT22;15704;48.834;8.736;2022-11-20T08:56:32;6.40;99.90
28484;DHT22;15704;48.834;8.736;2022-11-20T08:58:58;6.50;99.90
28484;DHT22;15704;48.834;8.736;2022-11-20T09:01:27;6.40;99.90
28484;DHT22;15704;48.834;8.736;2022-11-20T09:03:55;6.40;99.90
28484;DHT22;15704;48.834;8.736;2022-11-20T09:06:21;6.40;99.90
28484;DHT22;15704;48.834;8.736;2022-11-20T09:08:51;6.50;99.90
28484;DHT22;15704;48.834;8.736;2022-11-20T09:11:16;6.60;99.90
28484;DHT22;15704;48.834;8.736;2022-11-20T09:13:42;6.50;99.90
28484;DHT22;15704;48.834;8.736;2022-11-20T09:16:09;6.50;99.90
28484;DHT22;15704;48.834;8.736;2022-11-20T09:18:35;6.40;99.90
28484;DHT22;15704;48.834;8.736;2022-11-20T09:21:10;6.40;99.90
28484;DHT22;15704;48.834;8.736;2022-11-20T09:23:36;6.30;99.90
28484;DHT22;15704;48.834;8.736;2022-11-20T09:26:11;6.20;99.90
28484;DHT22;15704;48.834;8.736;2022-11-20T09:28:38;6.10;99.90
28484;DHT22;15704;48.834;8.736;2022-11-20T09:31:07;6.10;99.90
28484;DHT22;15704;48.834;8.736;2022-11-20T09:33:33;6.00;99.90
28484;DHT22;15704;48.834;8.736;2022-11-20T09:35:59;6.00;99.90
28484;DHT22;15704;48.834;8.736;2022-11-20T09:38:25;6.00;99.90
28484;DHT22;15704;48.834;8.736;2022-11-20T09:41:03;5.90;99.90
28484;DHT22;15704;48.834;8.736;2022-11-20T09:56:42;5.70;99.90
28484;DHT22;15704;48.834;8.736;2022-11-20T09:59:23;5.50;99.90
28484;DHT22;15704;48.834;8.736;2022-11-20T10:01:52;5.60;99.90
28484;DHT22;15704;48.834;8.736;2022-11-20T10:04:20;5.60;99.90
28484;DHT22;15704;48.834;8.736;2022-11-20T10:07:11;5.60;99.90
28484;DHT22;15704;48.834;8.736;2022-11-20T10:09:40;5.60;99.90
28484;DHT22;15704;48.834;8.736;2022-11-20T10:12:18;5.60;99.90
28484;DHT22;15704;48.834;8.736;2022-11-20T10:17:49;5.50;99.90
28484;DHT22;15704;48.834;8.736;2022-11-20T10:26:17;5.80;99.90
28484;DHT22;15704;48.834;8.736;2022-11-20T10:28:56;5.80;99.90
28484;DHT22;15704;48.834;8.736;2022-11-20T10:31:36;6.00;99.90
28484;DHT22;15704;48.834;8.736;2022-11-20T10:39:41;5.90;99.90
28484;DHT22;15704;48.834;8.736;2022-11-20T10:42:26;5.90;99.90
28484;DHT22;15704;48.834;8.736;2022-11-20T10:45:01;5.80;99.90
28484;DHT22;15704;48.834;8.736;2022-11-20T10:47:30;5.80;99.90
28484;DHT22;15704;48.834;8.736;2022-11-20T10:49:58;5.80;99.90
28484;DHT22;15704;48.834;8.736;2022-11-20T10:58:03;6.20;99.90
28484;DHT22;15704;48.834;8.736;2022-11-20T11:00:32;6.30;99.90
28484;DHT22;15704;48.834;8.736;2022-11-20T11:02:58;6.20;99.90
28484;DHT22;15704;48.834;8.736;2022-11-20T11:05:54;6.50;99.90
28484;DHT22;15704;48.834;8.736;2022-11-20T11:08:20;6.70;99.90
28484;DHT22;15704;48.834;8.736;2022-11-20T11:10:53;6.50;99.90
28484;DHT22;15704;48.834;8.736;2022-11-20T11:13:26;6.40;99.90
28484;DHT22;15704;48.834;8.736;2022-11-20T11:15:52;6.10;99.90
28484;DHT22;15704;48.834;8.736;2022-11-20T11:18:27;6.10;99.90
28484;DHT22;15704;48.834;8.736;2022-11-20T11:20:54;6.10;99.90
28484;DHT22;15704;48.834;8.736;2022-11-20T11:25:59;6.40;99.90
28484;DHT22;15704;48.834;8.736;2022-11-20T11:28:27;6.50;99.90
28484;DHT22;15704;48.834;8.736;2022-11-20T11:30:53;6.50;99.90
28484;DHT22;15704;48.834;8.736;2022-11-20T11:33:37;6.50;99.90
28484;DHT22;15704;48.834;8.736;2022-11-20T11:36:17;6.50;99.90
28484;DHT22;15704;48.834;8.736;2022-11-20T11:38:44;6.40;99.90
28484;DHT22;15704;48.834;8.736;2022-11-20T11:41:17;6.40;99.90
28484;DHT22;15704;48.834;8.736;2022-11-20T11:43:54;6.50;99.90
28484;DHT22;15704;48.834;8.736;2022-11-20T11:46:41;6.50;99.90
28484;DHT22;15704;48.834;8.736;2022-11-20T11:51:41;6.50;99.90
28484;DHT22;15704;48.834;8.736;2022-11-20T11:54:12;6.50;99.90
28484;DHT22;15704;48.834;8.736;2022-11-20T11:56:40;6.60;99.90
28484;DHT22;15704;48.834;8.736;2022-11-20T11:59:11;6.60;99.90
28484;DHT22;15704;48.834;8.736;2022-11-20T12:01:45;6.60;99.90
28484;DHT22;15704;48.834;8.736;2022-11-20T12:09:54;6.70;99.90
28484;DHT22;15704;48.834;8.736;2022-11-20T12:12:33;6.70;99.90
28484;DHT22;15704;48.834;8.736;2022-11-20T12:15:02;6.80;99.90
28484;DHT22;15704;48.834;8.736;2022-11-20T12:17:29;6.80;99.90
28484;DHT22;15704;48.834;8.736;2022-11-20T12:19:55;6.80;99.90
28484;DHT22;15704;48.834;8.736;2022-11-20T12:22:29;6.80;99.90
28484;DHT22;15704;48.834;8.736;2022-11-20T12:25:11;6.90;99.90
28484;DHT22;15704;48.834;8.736;2022-11-20T12:50:31;6.90;99.90
28484;DHT22;15704;48.834;8.736;2022-11-20T12:53:21;7.00;99.90
28484;DHT22;15704;48.834;8.736;2022-11-20T13:01:29;7.50;99.90
28484;DHT22;15704;48.834;8.736;2022-11-20T13:07:10;7.30;99.90
28484;DHT22;15704;48.834;8.736;2022-11-20T13:09:46;7.30;99.90
28484;DHT22;15704;48.834;8.736;2022-11-20T13:12:15;7.30;99.90
28484;DHT22;15704;48.834;8.736;2022-11-20T13:20:11;7.20;99.90
28484;DHT22;15704;48.834;8.736;2022-11-20T13:22:45;7.30;99.90
28484;DHT22;15704;48.834;8.736;2022-11-20T13:25:40;7.20;99.90
28484;DHT22;15704;48.834;8.736;2022-11-20T13:28:29;7.20;99.90
28484;DHT22;15704;48.834;8.736;2022-11-20T13:30:56;7.10;99.90
28484;DHT22;15704;48.834;8.736;2022-11-20T13:33:32;7.00;99.90
28484;DHT22;15704;48.834;8.736;2022-11-20T13:36:06;6.90;99.90
28484;DHT22;15704;48.834;8.736;2022-11-20T13:38:50;7.00;99.90
28484;DHT22;15704;48.834;8.736;2022-11-20T13:41:30;6.90;99.90
28484;DHT22;15704;48.834;8.736;2022-11-20T13:46:41;6.70;99.90
28484;DHT22;15704;48.834;8.736;2022-11-20T13:49:22;6.60;99.90
28484;DHT22;15704;48.834;8.736;2022-11-20T14:00:25;6.60;99.90
28484;DHT22;15704;48.834;8.736;2022-11-20T14:03:10;6.70;99.90
28484;DHT22;15704;48.834;8.736;2022-11-20T14:05:48;6.80;99.90
28484;DHT22;15704;48.834;8.736;2022-11-20T14:08:28;6.70;99.90
28484;DHT22;15704;48.834;8.736;2022-11-20T14:11:13;6.80;99.90
28484;DHT22;15704;48.834;8.736;2022-11-20T14:13:39;6.80;99.90
28484;DHT22;15704;48.834;8.736;2022-11-20T14:16:20;6.70;99.90
28484;DHT22;15704;48.834;8.736;2022-11-20T14:18:45;6.70;99.90
28484;DHT22;15704;48.834;8.736;2022-11-20T14:21:11;6.70;99.90
28484;DHT22;15704;48.834;8.736;2022-11-20T14:23:36;6.60;99.90
28484;DHT22;15704;48.834;8.736;2022-11-20T14:26:04;6.60;99.90
28484;DHT22;15704;48.834;8.736;2022-11-20T14:28:30;6.50;99.90
28484;DHT22;15704;48.834;8.736;2022-11-20T14:30:56;6.50;99.90
28484;DHT22;15704;48.834;8.736;2022-11-20T14:33:23;6.60;99.90
28484;DHT22;15704;48.834;8.736;2022-11-20T14:35:55;6.50;99.90
28484;DHT22;15704;48.834;8.736;2022-11-20T14:38:25;6.60;99.90
28484;DHT22;15704;48.834;8.736;2022-11-20T14:40:51;6.60;99.90
28484;DHT22;15704;48.834;8.736;2022-11-20T14:45:44;6.50;99.90
28484;DHT22;15704;48.834;8.736;2022-11-20T14:48:11;6.50;99.90
28484;DHT22;15704;48.834;8.736;2022-11-20T14:50:38;6.50;99.90
28484;DHT22;15704;48.834;8.736;2022-11-20T14:53:04;6.40;99.90
28484;DHT22;15704;48.834;8.736;2022-11-20T14:55:31;6.50;99.90
28484;DHT22;15704;48.834;8.736;2022-11-20T14:58:00;6.40;99.90
28484;DHT22;15704;48.834;8.736;2022-11-20T15:00:26;6.30;99.90
28484;DHT22;15704;48.834;8.736;2022-11-20T15:02:52;6.30;99.90
28484;DHT22;15704;48.834;8.736;2022-11-20T15:05:43;6.30;99.90
28484;DHT22;15704;48.834;8.736;2022-11-20T15:08:10;6.30;99.90
28484;DHT22;15704;48.834;8.736;2022-11-20T15:10:36;6.20;99.90
28484;DHT22;15704;48.834;8.736;2022-11-20T15:13:06;6.00;99.90
28484;DHT22;15704;48.834;8.736;2022-11-20T15:15:44;6.00;99.90
28484;DHT22;15704;48.834;8.736;2022-11-20T15:18:38;5.90;99.90
28484;DHT22;15704;48.834;8.736;2022-11-20T15:21:10;5.80;99.90
28484;DHT22;15704;48.834;8.736;2022-11-20T15:23:36;5.80;99.90
28484;DHT22;15704;48.834;8.736;2022-11-20T15:26:05;5.80;99.90
28484;DHT22;15704;48.834;8.736;2022-11-20T15:28:42;5.70;99.90
28484;DHT22;15704;48.834;8.736;2022-11-20T15:31:16;5.70;99.90
28484;DHT22;15704;48.834;8.736;2022-11-20T15:33:42;5.70;99.90
28484;DHT22;15704;48.834;8.736;2022-11-20T15:36:08;5.70;99.90
28484;DHT22;15704;48.834;8.736;2022-11-20T15:38:34;5.70;99.90
28484;DHT22;15704;48.834;8.736;2022-11-20T15:41:00;5.80;99.90
28484;DHT22;15704;48.834;8.736;2022-11-20T15:43:25;5.80;99.90
28484;DHT22;15704;48.834;8.736;2022-11-20T15:46:03;5.80;99.90
28484;DHT22;15704;48.834;8.736;2022-11-20T15:48:31;5.80;99.90
28484;DHT22;15704;48.834;8.736;2022-11-20T15:53:45;5.70;99.90
28484;DHT22;15704;48.834;8.736;2022-11-20T15:56:12;5.70;99.90
28484;DHT22;15704;48.834;8.736;2022-11-20T15:58:38;5.70;99.90
28484;DHT22;15704;48.834;8.736;2022-11-20T16:01:04;5.70;99.90
28484;DHT22;15704;48.834;8.736;2022-11-20T16:03:30;5.80;99.90
28484;DHT22;15704;48.834;8.736;2022-11-20T16:05:55;5.70;99.90
28484;DHT22;15704;48.834;8.736;2022-11-20T16:08:21;5.80;99.90
28484;DHT22;15704;48.834;8.736;2022-11-20T16:10:46;5.80;99.90
28484;DHT22;15704;48.834;8.736;2022-11-20T16:13:15;5.80;99.90
28484;DHT22;15704;48.834;8.736;2022-11-20T16:16:01;5.80;99.90
28484;DHT22;15704;48.834;8.736;2022-11-20T16:18:30;5.80;99.90
28484;DHT22;15704;48.834;8.736;2022-11-20T16:20:56;5.80;99.90
28484;DHT22;15704;48.834;8.736;2022-11-20T16:23:22;5.70;99.90
28484;DHT22;15704;48.834;8.736;2022-11-20T16:25:48;5.70;99.90
28484;DHT22;15704;48.834;8.736;2022-11-20T16:28:14;5.70;99.90
28484;DHT22;15704;48.834;8.736;2022-11-20T16:30:40;5.70;99.90
28484;DHT22;15704;48.834;8.736;2022-11-20T16:33:13;5.70;99.90
28484;DHT22;15704;48.834;8.736;2022-11-20T16:35:39;5.70;99.90
28484;DHT22;15704;48.834;8.736;2022-11-20T16:38:05;5.70;99.90
28484;DHT22;15704;48.834;8.736;2022-11-20T16:40:31;5.70;99.90
28484;DHT22;15704;48.834;8.736;2022-11-20T16:42:56;5.70;99.90
28484;DHT22;15704;48.834;8.736;2022-11-20T16:45:22;5.60;99.90
28484;DHT22;15704;48.834;8.736;2022-11-20T16:47:48;5.60;99.90
28484;DHT22;15704;48.834;8.736;2022-11-20T16:50:14;5.60;99.90
28484;DHT22;15704;48.834;8.736;2022-11-20T16:52:40;5.60;99.90
28484;DHT22;15704;48.834;8.736;2022-11-20T16:55:06;5.70;99.90
28484;DHT22;15704;48.834;8.736;2022-11-20T16:57:31;5.70;99.90
28484;DHT22;15704;48.834;8.736;2022-11-20T17:00:02;5.70;99.90
28484;DHT22;15704;48.834;8.736;2022-11-20T17:02:28;5.70;99.90
28484;DHT22;15704;48.834;8.736;2022-11-20T17:04:54;5.60;99.90
28484;DHT22;15704;48.834;8.736;2022-11-20T17:07:19;5.70;99.90
28484;DHT22;15704;48.834;8.736;2022-11-20T17:09:45;5.60;99.90
28484;DHT22;15704;48.834;8.736;2022-11-20T17:12:10;5.60;99.90
28484;DHT22;15704;48.834;8.736;2022-11-20T17:14:36;5.60;99.90
28484;DHT22;15704;48.834;8.736;2022-11-20T17:17:02;5.60;99.90
28484;DHT22;15704;48.834;8.736;2022-11-20T17:19:27;5.60;99.90
28484;DHT22;15704;48.834;8.736;2022-11-20T17:21:53;5.60;99.90
28484;DHT22;15704;48.834;8.736;2022-11-20T17:24:19;5.60;99.90
28484;DHT22;15704;48.834;8.736;2022-11-20T17:26:45;5.60;99.90
28484;DHT22;15704;48.834;8.736;2022-11-20T17:29:14;5.60;99.90
28484;DHT22;15704;48.834;8.736;2022-11-20T17:31:41;5.60;99.90
28484;DHT22;15704;48.834;8.736;2022-11-20T17:34:10;5.60;99.90
28484;DHT22;15704;48.834;8.736;2022-11-20T17:36:36;5.60;99.90
28484;DHT22;15704;48.834;8.736;2022-11-20T17:39:04;5.60;99.90
28484;DHT22;15704;48.834;8.736;2022-11-20T17:41:29;5.60;99.90